Time;durP1;ratioP1;P1;durP2;ratioP2;P2;SDS_P1;SDS_P2;PMS_P1;PMS_P2;Temp;Humidity;BMP_temperature;BMP_pressure;BME280_temperature;BME280_humidity;BME280_pressure;Samples;Min_cycle;Max_cycle;Signal;HPM_P1;HPM_P2
2022/07/09 00:05:15;;;;;;;;;;;;;;;;;;;;;
2022/07/09 00:12:36;;;;;;;;;;;;;;;;;;;;;
2022/07/09 00:15:49;;;;;;;;;;;;;;;;;;;;;
2022/07/09 00:29:33;;;;;;;;;6.50;5.00;;;;;21.93;45.82;102590.06;5912436;24;45401;-95
2022/07/09 00:32:54;;;;;;;;;4.75;4.75;;;;;21.97;46.45;102597.81;5927860;23;45905;-96
2022/07/09 00:35:20;;;;;;;;;4.00;4.00;;;;;21.90;46.67;102587.53;5920270;24;45365;-92
2022/07/09 00:37:49;;;;;;;;;6.00;5.50;;;;;21.85;46.12;102582.47;5897478;24;45500;-92
2022/07/09 00:40:22;;;;;;;;;4.25;4.25;;;;;21.84;47.16;102588.69;5898087;24;46646;-93
2022/07/09 00:43:22;;;;;;;;;5.00;5.00;;;;;21.85;47.58;102601.03;5967846;23;45771;-92
2022/07/09 00:46:04;;;;;;;;;6.50;5.00;;;;;21.81;47.57;102596.81;6010482;23;45442;-93
2022/07/09 00:48:54;;;;;;;;;7.00;5.00;;;;;21.76;47.86;102594.34;6083713;23;45332;-93
2022/07/09 00:51:23;;;;;;;;;5.25;5.25;;;;;21.70;47.94;102594.66;6095681;23;46683;-93
2022/07/09 00:53:55;;;;;;;;;4.25;4.25;;;;;21.65;48.05;102591.34;6096768;23;45319;-93
2022/07/09 00:56:25;;;;;;;;;5.00;4.00;;;;;21.68;47.90;102604.47;6129908;22;45259;-92
2022/07/09 01:02:14;;;;;;;;;5.50;5.50;;;;;21.64;47.50;102598.44;6240928;22;46482;-93
2022/07/09 01:04:49;;;;;;;;;6.00;5.25;;;;;21.59;47.47;102592.50;6239839;22;45280;-93
2022/07/09 01:07:29;;;;;;;;;6.25;5.00;;;;;21.58;47.95;102590.78;6216407;22;45310;-93
2022/07/09 01:10:10;;;;;;;;;5.75;5.75;;;;;21.57;48.06;102586.41;6332604;22;45438;-92
2022/07/09 01:12:36;;;;;;;;;5.00;5.00;;;;;21.57;48.18;102585.56;6400919;22;46611;-92
2022/07/09 01:18:23;;;;;;;;;;;;;;;;;;;;;
2022/07/09 01:20:56;;;;;;;;;6.75;6.50;;;;;21.52;47.99;102579.59;6372746;22;69195;-92
2022/07/09 01:23:38;;;;;;;;;6.75;5.50;;;;;21.49;48.27;102574.44;6400994;22;45715;-92
2022/07/09 01:26:26;;;;;;;;;4.00;4.00;;;;;21.38;48.30;102559.03;6374192;22;45922;-93
2022/07/09 01:29:01;;;;;;;;;7.00;5.50;;;;;21.39;48.74;102573.97;6373545;22;45371;-93
2022/07/09 01:31:32;;;;;;;;;7.00;6.00;;;;;21.26;49.10;102555.13;6302411;22;45344;-93
2022/07/09 01:34:08;;;;;;;;;7.00;6.00;;;;;21.23;49.27;102560.59;6303619;22;45610;-92
2022/07/09 01:36:39;;;;;;;;;4.25;4.25;;;;;21.22;48.51;102567.66;6303867;22;45333;-92
2022/07/09 01:39:07;;;;;;;;;4.00;4.00;;;;;21.18;49.11;102562.56;6303396;22;45238;-91
2022/07/09 01:41:33;;;;;;;;;6.00;6.00;;;;;21.22;48.27;102567.66;6277483;22;45263;-92
2022/07/09 01:44:06;;;;;;;;;6.00;6.00;;;;;21.16;48.63;102562.63;6276979;22;45673;-93
2022/07/09 01:46:35;;;;;;;;;7.00;5.00;;;;;21.17;48.85;102559.06;6265645;22;45718;-92
2022/07/09 01:49:04;;;;;;;;;8.50;7.75;;;;;21.12;48.82;102557.53;6276809;22;45469;-92
2022/07/09 01:51:46;;;;;;;;;6.25;5.25;;;;;21.12;49.17;102547.81;6277188;22;45165;-92
2022/07/09 01:54:16;;;;;;;;;5.00;4.75;;;;;21.15;49.45;102562.69;6248887;22;47402;-92
2022/07/09 01:56:47;;;;;;;;;10.25;6.75;;;;;21.10;48.88;102557.63;6250338;22;45312;-92
2022/07/09 01:59:26;;;;;;;;;6.75;5.50;;;;;21.06;48.75;102548.97;6273363;22;45590;-92
2022/07/09 02:02:24;;;;;;;;;6.00;5.50;;;;;21.04;49.34;102534.94;6252137;22;45278;-92
2022/07/09 02:05:00;;;;;;;;;5.25;4.75;;;;;20.98;49.30;102535.19;6302478;22;45985;-92
2022/07/09 02:07:32;;;;;;;;;5.25;5.25;;;;;20.96;49.33;102536.19;6303171;22;45436;-92
2022/07/09 02:10:24;;;;;;;;;5.75;5.75;;;;;20.93;49.42;102547.78;6364959;22;45266;-93
2022/07/09 02:13:05;;;;;;;;;7.00;5.75;;;;;20.91;49.40;102531.09;6376968;22;45637;-92
2022/07/09 02:15:33;;;;;;;;;6.75;5.00;;;;;20.84;49.20;102525.22;6344717;22;47146;-92
2022/07/09 02:18:18;;;;;;;;;6.25;6.00;;;;;20.86;49.61;102539.25;6372438;22;45371;-92
2022/07/09 02:20:56;;;;;;;;;;;;;;;;;;;;;
2022/07/09 02:23:53;;;;;;;;;;;;;;;;;;;;;
2022/07/09 02:29:53;;;;;;;;;5.50;4.00;;;;;20.59;49.87;102522.72;6387364;22;45772;-93
2022/07/09 02:32:29;;;;;;;;;6.00;6.00;;;;;20.64;50.75;102533.16;6299317;22;45393;-92
2022/07/09 02:35:19;;;;;;;;;7.00;6.00;;;;;20.54;50.09;102524.75;6277669;22;45356;-93
2022/07/09 02:38:08;;;;;;;;;6.25;6.25;;;;;20.44;50.36;102516.31;6254242;22;47638;-92
2022/07/09 02:40:57;;;;;;;;;6.25;5.75;;;;;20.45;50.89;102519.84;6277246;22;45671;-93
2022/07/09 02:43:59;;;;;;;;;7.00;5.50;;;;;20.45;50.70;102519.84;6280708;22;45476;-93
2022/07/09 02:46:30;;;;;;;;;5.00;5.00;;;;;20.48;51.04;102527.63;6302848;22;45446;-94
2022/07/09 02:49:10;;;;;;;;;4.75;4.75;;;;;20.47;50.94;102533.84;6276109;22;46781;-93
2022/07/09 02:51:46;;;;;;;;;8.00;5.00;;;;;20.44;51.14;102526.88;6276271;22;45774;-92
2022/07/09 02:54:26;;;;;;;;;5.75;4.75;;;;;20.38;50.88;102515.72;6277548;22;45421;-94
2022/07/09 02:57:13;;;;;;;;;;;;;;;;;;;;;
2022/07/09 03:00:05;;;;;;;;;6.00;5.25;;;;;20.42;50.93;102538.47;6366107;22;74614;-94
2022/07/09 03:06:58;;;;;;;;;8.25;7.00;;;;;20.33;50.57;102541.50;6299210;22;45448;-93
2022/07/09 03:09:26;;;;;;;;;7.25;7.25;;;;;20.25;50.85;102536.53;6301672;22;45274;-92
2022/07/09 03:11:55;;;;;;;;;8.75;8.00;;;;;20.16;51.19;102528.97;6249210;22;46704;-92
2022/07/09 03:15:03;;;;;;;;;;;;;;;;;;;;;
2022/07/09 03:17:33;;;;;;;;;7.75;5.75;;;;;20.00;51.70;102539.31;6224024;22;68693;-92
2022/07/09 03:20:04;;;;;;;;;7.00;7.00;;;;;19.89;51.40;102526.50;6277086;22;45531;-92
2022/07/09 03:22:38;;;;;;;;;7.00;7.00;;;;;19.94;51.67;102531.63;6275746;22;46725;-93
2022/07/09 03:25:17;;;;;;;;;9.25;7.00;;;;;19.97;51.70;102537.66;6273085;22;45219;-92
2022/07/09 03:28:01;;;;;;;;;7.75;7.25;;;;;19.90;51.65;102526.44;6275745;22;45526;-92
2022/07/09 03:30:37;;;;;;;;;8.50;8.00;;;;;19.91;51.46;102529.97;6250394;22;45372;-92
2022/07/09 03:33:06;;;;;;;;;8.50;7.00;;;;;19.94;51.66;102536.91;6250989;22;48026;-92
2022/07/09 03:35:39;;;;;;;;;9.50;9.50;;;;;19.88;51.75;102528.28;6275685;22;45393;-92
2022/07/09 03:41:28;;;;;;;;;7.25;7.25;;;;;19.91;51.72;102540.56;6307657;22;45345;-90
2022/07/09 03:44:01;;;;;;;;;8.75;7.25;;;;;19.90;51.99;102546.75;6335755;22;47991;-92
2022/07/09 03:46:26;;;;;;;;;10.25;9.00;;;;;19.76;51.99;102542.00;6311564;22;45783;-92
2022/07/09 03:48:52;;;;;;;;;9.75;9.00;;;;;19.77;52.29;102549.00;6337103;22;45349;-90
2022/07/09 03:51:19;;;;;;;;;8.50;7.75;;;;;19.74;52.16;102546.47;6309355;22;57381;-93
2022/07/09 03:53:48;;;;;;;;;10.50;9.00;;;;;19.71;52.37;102555.34;6310203;22;48337;-92
2022/07/09 03:56:15;;;;;;;;;7.25;7.00;;;;;19.60;52.19;102544.34;6336230;22;45811;-92
2022/07/09 03:58:43;;;;;;;;;9.00;8.75;;;;;19.58;51.78;102546.19;6337999;22;45273;-92
2022/07/09 04:01:11;;;;;;;;;8.00;7.00;;;;;19.68;52.09;102571.31;6337759;22;45435;-93
2022/07/09 04:03:39;;;;;;;;;9.75;8.25;;;;;19.67;52.32;102566.13;6310084;22;47761;-93
2022/07/09 04:06:05;;;;;;;;;8.25;7.00;;;;;19.63;52.51;102551.28;6386937;22;45722;-91
2022/07/09 04:08:38;;;;;;;;;9.25;8.00;;;;;19.66;52.04;102559.09;6402178;22;45481;-92
2022/07/09 04:11:09;;;;;;;;;8.00;7.75;;;;;19.61;52.62;102559.25;6374673;22;45573;-92
2022/07/09 04:13:34;;;;;;;;;7.50;7.50;;;;;19.66;52.32;102574.94;6346883;22;47064;-94
2022/07/09 04:16:00;;;;;;;;;8.75;8.75;;;;;19.60;53.12;102561.97;6373227;22;45390;-91
2022/07/09 04:18:28;;;;;;;;;7.75;7.00;;;;;19.53;52.85;102564.84;6373408;22;45429;-92
2022/07/09 04:20:57;;;;;;;;;9.00;8.00;;;;;19.51;53.06;102565.81;6373600;22;45135;-92
2022/07/09 04:23:23;;;;;;;;;11.25;7.75;;;;;19.43;52.77;102557.34;6401343;22;45983;-90
2022/07/09 04:25:50;;;;;;;;;11.00;9.50;;;;;19.50;52.95;102562.31;6373098;22;46279;-92
2022/07/09 04:28:19;;;;;;;;;12.25;9.75;;;;;19.45;53.10;102558.13;6373505;22;45233;-92
2022/07/09 04:30:50;;;;;;;;;9.50;9.00;;;;;19.50;53.13;102579.94;6401280;22;45492;-92
2022/07/09 04:33:15;;;;;;;;;11.50;9.25;;;;;19.39;53.01;102561.88;6372225;22;46508;-92
2022/07/09 04:35:41;;;;;;;;;9.00;7.00;;;;;19.45;53.91;102561.63;6373421;22;45186;-92
2022/07/09 04:38:06;;;;;;;;;8.00;7.25;;;;;19.42;53.54;102547.69;6373674;22;45217;-92
2022/07/09 04:40:35;;;;;;;;;8.25;6.75;;;;;19.51;53.97;102558.75;6372829;22;45473;-91
2022/07/09 04:43:06;;;;;;;;;7.00;7.00;;;;;19.49;53.61;102555.31;6373822;22;45653;-92
2022/07/09 04:45:32;;;;;;;;;9.50;8.00;;;;;19.44;53.89;102551.13;6401208;22;45159;-91
2022/07/09 04:48:11;;;;;;;;;7.75;7.75;;;;;19.43;53.79;102562.63;6373273;22;45251;-92
2022/07/09 04:50:49;;;;;;;;;9.00;9.00;;;;;19.34;53.43;102554.09;6372156;22;45521;-93
2022/07/09 04:53:19;;;;;;;;;10.00;7.50;;;;;19.34;54.07;102559.38;6372653;22;47130;-93
2022/07/09 04:55:45;;;;;;;;;8.50;7.00;;;;;19.32;53.86;102557.72;6401011;22;45389;-92
2022/07/09 04:58:16;;;;;;;;;7.00;7.00;;;;;19.40;54.40;102565.38;6373277;22;45328;-93
2022/07/09 05:01:07;;;;;;;;;9.25;8.25;;;;;19.42;53.94;102568.81;6396017;22;45543;-92
2022/07/09 05:03:50;;;;;;;;;8.75;8.00;;;;;19.40;53.94;102578.56;6399891;22;48200;-93
2022/07/09 05:06:19;;;;;;;;;5.50;5.50;;;;;19.31;54.24;102571.84;6334790;22;45680;-91
2022/07/09 05:08:47;;;;;;;;;10.75;7.25;;;;;19.21;54.43;102571.31;6362057;22;45201;-93
2022/07/09 05:11:15;;;;;;;;;9.00;8.00;;;;;19.25;54.55;102575.56;6362301;22;45554;-92
2022/07/09 05:13:43;;;;;;;;;9.25;8.25;;;;;19.22;54.52;102567.75;6362448;22;47414;-92
2022/07/09 05:16:19;;;;;;;;;9.00;9.00;;;;;19.20;54.07;102566.09;6362328;22;45682;-92
2022/07/09 05:18:51;;;;;;;;;10.50;8.75;;;;;19.26;54.17;102560.56;6337533;22;45259;-92
2022/07/09 05:21:28;;;;;;;;;12.50;10.00;;;;;19.31;54.36;102567.41;6362364;22;45495;-93
2022/07/09 05:24:32;;;;;;;;;9.75;9.75;;;;;19.21;54.13;102552.84;6335243;22;46330;-93
2022/07/09 05:27:12;;;;;;;;;9.75;9.00;;;;;19.25;54.39;102570.28;6309116;22;45831;-93
2022/07/09 05:30:26;;;;;;;;;;;;;;;;;;;;;
2022/07/09 05:43:54;;;;;;;;;11.75;9.25;;;;;19.31;54.25;102574.47;6062599;23;45472;-94
2022/07/09 06:01:42;;;;;;;;;;;;;;;;;;;;;
2022/07/09 06:34:14;;;;;;;;;8.75;8.75;;;;;20.10;53.23;102567.94;5754755;24;45487;-94
2022/07/09 06:36:44;;;;;;;;;16.50;10.50;;;;;20.06;53.79;102563.72;5806082;24;46457;-93
2022/07/09 06:41:53;;;;;;;;;8.75;8.00;;;;;20.08;53.59;102558.38;5819992;24;45256;-88
2022/07/09 06:44:19;;;;;;;;;9.00;8.00;;;;;20.21;53.33;102566.66;5865372;23;58411;-89
2022/07/09 06:46:44;;;;;;;;;9.50;9.50;;;;;20.22;53.33;102560.44;6053589;23;49217;-89
2022/07/09 06:52:28;;;;;;;;;12.00;11.00;;;;;20.40;52.86;102561.47;6090540;23;45305;-92
2022/07/09 06:55:06;;;;;;;;;;;;;;;;;;;;;
2022/07/09 06:57:36;;;;;;;;;12.75;10.00;;;;;20.55;53.00;102558.19;6096537;23;71422;-87
2022/07/09 07:00:17;;;;;;;;;;;;;;;;;;;;;
2022/07/09 07:02:58;;;;;;;;;11.50;9.50;;;;;20.78;53.34;102565.19;6149119;23;68572;-87
2022/07/09 07:05:29;;;;;;;;;12.25;10.00;;;;;20.82;52.53;102558.84;6157547;23;46566;-86
2022/07/09 07:09:06;;;;;;;;;;;;;;;;;;;;;
2022/07/09 07:11:23;;;;;;;;;14.00;13.75;;;;;20.90;52.03;102547.91;6325705;22;45293;-85
2022/07/09 07:13:48;;;;;;;;;16.00;12.00;;;;;21.01;52.11;102553.59;6336626;22;45276;-87
2022/07/09 07:17:05;;;;;;;;;;;;;;;;;;;;;
2022/07/09 07:19:21;;;;;;;;;12.75;11.75;;;;;21.22;51.43;102559.69;6327939;22;45231;-88
2022/07/09 07:21:46;;;;;;;;;10.75;9.25;;;;;21.25;51.26;102556.06;6336505;22;45271;-89
2022/07/09 07:24:13;;;;;;;;;10.00;9.50;;;;;21.24;51.06;102554.34;6335825;22;45469;-88
2022/07/09 07:26:43;;;;;;;;;7.25;7.25;;;;;21.30;51.14;102542.59;6335380;22;47233;-87
2022/07/09 07:29:16;;;;;;;;;11.00;10.00;;;;;21.50;51.66;102562.94;6335735;22;45512;-87
2022/07/09 07:31:44;;;;;;;;;8.50;7.00;;;;;21.53;50.72;102560.16;6362022;22;45270;-86
2022/07/09 07:34:14;;;;;;;;;10.25;6.25;;;;;21.60;50.92;102564.19;6335894;22;45329;-90
2022/07/09 07:37:03;;;;;;;;;;;;;;;;;;;;;
2022/07/09 07:39:28;;;;;;;;;9.25;7.75;;;;;21.72;50.32;102560.97;6332866;22;74287;-85
2022/07/09 07:41:54;;;;;;;;;10.00;8.50;;;;;21.81;50.11;102563.19;6336404;22;54462;-86
2022/07/09 07:44:19;;;;;;;;;8.25;8.00;;;;;21.92;49.88;102562.69;6308608;22;70495;-84
2022/07/09 07:46:45;;;;;;;;;8.75;8.00;;;;;21.99;49.78;102560.59;6308125;22;47528;-85
2022/07/09 07:49:10;;;;;;;;;9.75;8.25;;;;;22.03;49.75;102564.84;6335842;22;62656;-91
2022/07/09 07:51:38;;;;;;;;;10.00;10.00;;;;;22.09;50.18;102556.56;6336356;22;45319;-87
2022/07/09 07:54:03;;;;;;;;;8.50;8.50;;;;;22.11;49.39;102562.66;6336458;22;45230;-87
2022/07/09 07:56:42;;;;;;;;;;;;;;;;;;;;;
2022/07/09 07:59:10;;;;;;;;;9.75;8.50;;;;;22.24;49.15;102557.59;6332466;22;72742;-89
2022/07/09 08:01:35;;;;;;;;;12.00;10.25;;;;;22.27;49.09;102546.00;6335731;22;45307;-90
2022/07/09 08:04:01;;;;;;;;;10.00;9.00;;;;;22.38;48.98;102560.47;6310543;22;45175;-88
2022/07/09 08:06:34;;;;;;;;;9.00;9.00;;;;;22.49;48.70;102559.94;6312289;22;47152;-87
2022/07/09 08:09:02;;;;;;;;;6.25;6.25;;;;;22.57;48.43;102554.25;6337244;22;45224;-87
2022/07/09 08:11:33;;;;;;;;;7.25;6.00;;;;;22.59;48.08;102552.38;6336956;22;45206;-88
2022/07/09 08:14:10;;;;;;;;;7.00;7.00;;;;;22.67;48.19;102544.84;6337749;22;45200;-92
2022/07/09 08:16:37;;;;;;;;;7.00;6.25;;;;;22.78;47.50;102552.25;6335092;22;47278;-88
2022/07/09 08:19:03;;;;;;;;;8.00;7.00;;;;;22.81;47.36;102550.31;6336037;22;45631;-87
2022/07/09 08:21:28;;;;;;;;;8.75;7.00;;;;;22.90;47.31;102559.59;6310880;22;45280;-89
2022/07/09 08:23:54;;;;;;;;;8.00;8.00;;;;;22.92;47.42;102546.22;6336240;22;45207;-90
2022/07/09 08:26:26;;;;;;;;;6.50;6.50;;;;;23.00;47.00;102554.66;6362715;22;47126;-90
2022/07/09 08:28:52;;;;;;;;;8.75;7.00;;;;;23.07;47.32;102552.56;6338020;22;45647;-89
2022/07/09 08:31:19;;;;;;;;;7.75;7.00;;;;;23.14;46.98;102544.19;6336164;22;45322;-88
2022/07/09 08:33:45;;;;;;;;;6.50;6.50;;;;;23.19;46.55;102550.09;6336649;22;45281;-88
2022/07/09 08:36:11;;;;;;;;;11.50;8.75;;;;;23.16;47.00;102542.31;6337565;22;45406;-89
2022/07/09 08:38:36;;;;;;;;;8.00;7.50;;;;;23.21;46.79;102538.53;6309550;22;45297;-88
2022/07/09 08:41:05;;;;;;;;;8.00;7.25;;;;;23.27;46.94;102533.78;6336359;22;45276;-91
2022/07/09 08:43:39;;;;;;;;;9.50;9.00;;;;;23.35;46.33;102538.66;6337406;22;45245;-85
2022/07/09 08:46:05;;;;;;;;;7.75;7.75;;;;;23.41;46.16;102540.13;6337983;22;45374;-88
2022/07/09 08:48:37;;;;;;;;;10.00;7.00;;;;;23.49;46.25;102546.72;6337718;22;45609;-87
2022/07/09 08:51:03;;;;;;;;;8.75;7.75;;;;;23.55;45.78;102532.22;6334888;22;45342;-85
2022/07/09 08:53:29;;;;;;;;;7.50;6.75;;;;;23.71;45.25;102534.91;6336328;22;45241;-82
2022/07/09 08:55:55;;;;;;;;;6.75;6.75;;;;;23.75;45.20;102521.38;6334448;22;47089;-84
2022/07/09 08:58:20;;;;;;;;;6.75;6.75;;;;;23.84;45.03;102527.97;6336152;22;45153;-83
2022/07/09 09:00:48;;;;;;;;;8.75;8.50;;;;;23.94;45.01;102521.19;6361370;22;45389;-83
2022/07/09 09:03:13;;;;;;;;;5.00;5.00;;;;;23.96;44.80;102507.81;6334945;22;45395;-83
2022/07/09 09:05:38;;;;;;;;;9.00;6.00;;;;;24.08;44.83;102519.53;6343285;22;66607;-83
2022/07/09 09:08:22;;;;;;;;;7.00;7.00;;;;;24.13;44.83;102512.16;6400697;22;45348;-83
2022/07/09 09:10:47;;;;;;;;;8.25;5.00;;;;;24.20;44.60;102513.50;6372652;22;45233;-84
2022/07/09 09:13:15;;;;;;;;;3.25;2.75;;;;;24.27;44.49;102519.31;6372638;22;45245;-84
2022/07/09 09:15:41;;;;;;;;;8.25;6.25;;;;;24.30;44.10;102504.03;6371394;22;46274;-86
2022/07/09 09:18:06;;;;;;;;;6.75;4.75;;;;;24.40;44.02;102511.47;6372096;22;45333;-87
2022/07/09 09:20:31;;;;;;;;;4.00;4.00;;;;;24.46;43.73;102500.44;6372120;22;45312;-86
2022/07/09 09:23:02;;;;;;;;;6.50;5.00;;;;;24.57;43.96;102513.13;6399158;22;45291;-84
2022/07/09 09:25:27;;;;;;;;;5.00;5.00;;;;;24.59;43.10;102514.78;6371875;22;45398;-85
2022/07/09 09:27:57;;;;;;;;;6.00;4.50;;;;;24.65;42.93;102510.88;6399562;22;45232;-85
2022/07/09 09:30:23;;;;;;;;;7.00;5.50;;;;;24.70;43.17;102509.66;6371141;22;45491;-84
2022/07/09 09:33:18;;;;;;;;;4.25;3.50;;;;;24.73;43.51;102509.44;6344659;22;45502;-86
2022/07/09 09:35:46;;;;;;;;;4.75;4.75;;;;;24.77;43.46;102503.94;6368007;22;46571;-86
2022/07/09 09:38:12;;;;;;;;;4.00;4.00;;;;;24.83;43.05;102508.88;6372528;22;45258;-87
2022/07/09 09:40:37;;;;;;;;;5.25;5.00;;;;;24.88;43.13;102507.66;6345441;22;45345;-84
2022/07/09 09:43:03;;;;;;;;;6.00;5.00;;;;;24.97;42.29;102497.38;6399829;22;45704;-84
2022/07/09 09:45:29;;;;;;;;;2.75;2.75;;;;;25.06;42.50;102504.81;6371562;22;46975;-83
2022/07/09 09:47:54;;;;;;;;;5.75;4.25;;;;;25.16;41.92;102513.06;6400550;22;45539;-86
2022/07/09 09:50:22;;;;;;;;;5.75;4.75;;;;;25.24;42.34;102508.13;6400039;22;45398;-85
2022/07/09 09:52:49;;;;;;;;;3.75;3.00;;;;;25.32;42.23;102502.34;6400068;22;45325;-84
2022/07/09 09:55:17;;;;;;;;;2.75;2.75;;;;;25.44;41.68;102515.72;6400587;22;46122;-84
2022/07/09 09:57:43;;;;;;;;;5.00;4.25;;;;;25.53;41.18;102506.28;6370938;22;45273;-84
2022/07/09 10:00:12;;;;;;;;;4.50;4.25;;;;;25.64;41.29;102506.44;6372169;22;45260;-83
2022/07/09 10:02:48;;;;;;;;;4.00;4.00;;;;;25.77;41.03;102513.66;6400360;22;45334;-83
2022/07/09 10:05:13;;;;;;;;;5.00;3.50;;;;;25.88;42.19;102503.13;6371422;22;47272;-83
2022/07/09 10:07:40;;;;;;;;;7.00;4.00;;;;;26.02;40.76;102513.78;6371801;22;45339;-84
2022/07/09 10:10:06;;;;;;;;;4.00;3.25;;;;;26.17;41.14;102513.69;6399754;22;45272;-86
2022/07/09 10:12:34;;;;;;;;;5.75;4.50;;;;;26.25;41.20;102504.22;6344548;22;45259;-84
2022/07/09 10:14:59;;;;;;;;;4.00;3.00;;;;;26.31;40.60;102504.75;6371196;22;46563;-82
2022/07/09 10:17:25;;;;;;;;;5.00;4.00;;;;;26.36;40.23;102507.97;6370591;22;63997;-84
2022/07/09 10:19:56;;;;;;;;;3.00;3.00;;;;;26.41;39.95;102504.03;6372199;22;45375;-81
2022/07/09 10:22:22;;;;;;;;;4.50;3.00;;;;;26.51;39.40;102506.91;6371506;22;45317;-83
2022/07/09 10:24:51;;;;;;;;;2.50;2.50;;;;;26.50;39.27;102494.50;6371126;22;47068;-82
2022/07/09 10:27:16;;;;;;;;;4.00;4.00;;;;;26.60;39.31;102498.28;6399597;22;45603;-83
2022/07/09 10:29:56;;;;;;;;;3.50;3.50;;;;;26.75;39.58;102499.03;6371468;22;45325;-83
2022/07/09 10:32:27;;;;;;;;;3.50;3.50;;;;;26.84;39.37;102498.41;6371060;22;45371;-82
2022/07/09 10:35:00;;;;;;;;;5.25;5.00;;;;;26.99;38.72;102500.94;6371129;22;46167;-83
2022/07/09 10:37:38;;;;;;;;;3.50;3.50;;;;;27.07;37.90;102495.91;6371073;22;45680;-83
2022/07/09 10:40:15;;;;;;;;;3.25;3.25;;;;;27.18;38.26;102487.97;6399439;22;45267;-82
2022/07/09 10:42:42;;;;;;;;;3.75;3.75;;;;;27.33;38.88;102482.50;6399858;22;45254;-81
2022/07/09 10:45:22;;;;;;;;;5.75;4.50;;;;;27.51;38.30;102494.53;6399190;22;46120;-82
2022/07/09 10:47:52;;;;;;;;;6.00;4.25;;;;;27.57;38.17;102483.38;6399147;22;45283;-81
2022/07/09 10:50:18;;;;;;;;;4.00;4.00;;;;;27.65;37.66;102477.44;6371620;22;45323;-82
2022/07/09 10:52:44;;;;;;;;;4.00;4.00;;;;;27.77;37.50;102478.38;6398343;22;67146;-81
2022/07/09 10:55:09;;;;;;;;;4.00;4.00;;;;;27.88;37.16;102475.75;6371313;22;46076;-80
2022/07/09 10:57:35;;;;;;;;;3.00;3.00;;;;;27.99;36.27;102472.28;6399186;22;45360;-82
2022/07/09 11:00:00;;;;;;;;;5.75;4.50;;;;;28.05;37.20;102473.66;6371734;22;45339;-84
2022/07/09 11:02:26;;;;;;;;;5.00;3.00;;;;;28.16;36.31;102473.69;6370058;22;61545;-83
2022/07/09 11:04:52;;;;;;;;;5.00;3.75;;;;;28.19;36.34;102468.94;6370441;22;46190;-80
2022/07/09 11:09:34;;;;;;;;;5.00;4.00;;;;;28.17;36.02;102449.44;5089685;27;45418;-85
2022/07/09 11:12:01;;;;;;;;;4.25;3.25;;;;;28.28;35.94;102459.34;5072285;27;45371;-81
2022/07/09 11:14:26;;;;;;;;;5.25;4.25;;;;;28.44;35.71;102455.47;5071286;27;48559;-86
2022/07/09 11:17:01;;;;;;;;;4.00;3.25;;;;;28.60;35.51;102457.81;5072238;27;55136;-86
2022/07/09 11:19:29;;;;;;;;;3.75;3.75;;;;;28.69;35.34;102449.06;5071319;28;46380;-86
2022/07/09 11:22:02;;;;;;;;;4.00;3.00;;;;;28.77;34.79;102452.84;5071616;28;45432;-87
2022/07/09 11:24:29;;;;;;;;;4.25;4.25;;;;;28.75;34.54;102444.06;5055107;28;45588;-92
2022/07/09 11:26:54;;;;;;;;;6.50;4.25;;;;;28.76;34.44;102447.59;5067984;28;45325;-87
2022/07/09 11:29:20;;;;;;;;;5.00;5.00;;;;;28.73;34.34;102437.13;5058753;28;47962;-86
2022/07/09 11:31:49;;;;;;;;;6.75;5.25;;;;;28.71;34.46;102437.22;5052566;28;45710;-85
2022/07/09 11:34:16;;;;;;;;;6.75;4.25;;;;;28.64;34.51;102432.50;5067391;27;45989;-86
2022/07/09 11:36:43;;;;;;;;;13.25;12.25;;;;;28.62;34.86;102429.97;5069724;28;45414;-87
2022/07/09 11:39:08;;;;;;;;;13.75;11.25;;;;;28.68;34.44;102432.13;5068947;28;46312;-86
2022/07/09 11:41:42;;;;;;;;;22.75;20.00;;;;;28.74;34.60;102437.00;5069403;28;45549;-83
2022/07/09 11:44:07;;;;;;;;;8.50;6.50;;;;;28.76;34.16;102424.31;5050697;28;45423;-81
2022/07/09 11:46:33;;;;;;;;;6.00;3.75;;;;;28.82;33.85;102425.66;5050730;28;45579;-81
2022/07/09 11:48:58;;;;;;;;;25.25;24.00;;;;;28.84;34.13;102418.34;5050410;28;75824;-84
2022/07/09 11:51:34;;;;;;;;;6.00;5.25;;;;;28.91;34.04;102424.91;5063901;27;72610;-83
2022/07/09 11:54:00;;;;;;;;;5.75;5.75;;;;;29.03;33.93;102419.53;5070257;28;45578;-84
2022/07/09 11:56:26;;;;;;;;;31.50;28.75;;;;;29.17;33.69;102423.81;5059082;27;45444;-82
2022/07/09 11:58:53;;;;;;;;;5.50;5.50;;;;;29.24;33.63;102417.81;5050323;28;45381;-83
2022/07/09 12:01:18;;;;;;;;;4.75;4.75;;;;;29.23;33.32;102416.09;5050087;28;45431;-82
2022/07/09 12:03:48;;;;;;;;;7.25;5.75;;;;;29.20;32.97;102420.88;5050237;28;45344;-83
2022/07/09 12:06:14;;;;;;;;;9.50;9.50;;;;;29.09;32.76;102414.53;5051553;28;45357;-82
2022/07/09 12:08:39;;;;;;;;;2.75;2.00;;;;;29.03;32.60;102417.72;5052593;28;46653;-83
2022/07/09 12:11:05;;;;;;;;;2.25;2.25;;;;;29.03;32.85;102406.13;5065650;28;45469;-83
2022/07/09 12:13:30;;;;;;;;;14.25;11.00;;;;;29.13;33.70;102405.28;5049470;28;59452;-83
2022/07/09 12:15:55;;;;;;;;;4.00;4.00;;;;;29.26;33.04;102407.81;5050452;28;69920;-83
2022/07/09 12:18:21;;;;;;;;;3.75;3.75;;;;;29.32;32.80;102398.41;5056625;28;64126;-82
2022/07/09 12:20:46;;;;;;;;;9.25;7.75;;;;;29.35;32.35;102395.50;5055549;28;45223;-82
2022/07/09 12:23:11;;;;;;;;;4.25;4.00;;;;;29.39;32.11;102393.41;5035743;28;68923;-82
2022/07/09 12:25:37;;;;;;;;;5.75;4.75;;;;;29.51;32.25;102387.88;5045197;28;53521;-81
2022/07/09 12:28:02;;;;;;;;;40.00;33.25;;;;;29.65;32.21;102392.06;5053117;28;47178;-81
2022/07/09 12:30:29;;;;;;;;;6.25;6.00;;;;;29.77;32.21;102394.72;5056228;28;45226;-81
2022/07/09 12:32:55;;;;;;;;;4.00;4.00;;;;;29.80;31.71;102389.94;5052964;28;45339;-81
2022/07/09 12:35:21;;;;;;;;;7.00;5.00;;;;;29.87;31.82;102387.59;5043462;28;45309;-81
2022/07/09 12:37:47;;;;;;;;;4.25;4.25;;;;;29.89;31.93;102389.16;5054166;28;46457;-81
2022/07/09 12:40:12;;;;;;;;;10.00;7.75;;;;;29.90;31.48;102384.63;5053563;28;45466;-83
2022/07/09 12:42:38;;;;;;;;;19.00;16.50;;;;;30.02;33.23;102378.22;5045813;28;45929;-87
2022/07/09 12:45:07;;;;;;;;;21.75;19.75;;;;;30.10;31.47;102366.81;5054968;28;45403;-87
2022/07/09 12:47:40;;;;;;;;;8.50;8.50;;;;;30.25;31.33;102370.81;5037020;28;46380;-87
2022/07/09 12:50:17;;;;;;;;;5.75;5.75;;;;;30.36;30.46;102371.75;5038038;28;45876;-89
2022/07/09 12:52:43;;;;;;;;;4.75;4.75;;;;;30.55;30.98;102370.97;5039020;28;45325;-88
2022/07/09 12:55:31;;;;;;;;;6.00;4.00;;;;;30.74;30.80;102363.00;5043352;28;45528;-90
2022/07/09 12:58:06;;;;;;;;;4.75;4.00;;;;;30.90;30.75;102367.81;5049440;28;46407;-93
2022/07/09 13:00:42;;;;;;;;;;;;;;;;;;;;;
2022/07/09 13:09:41;;;;;;;;;4.25;4.25;;;;;31.79;28.63;102356.13;5016737;28;46325;-87
2022/07/09 13:19:27;;;;;;;;;;;;;;;;;;;;;
2022/07/09 13:22:08;;;;;;;;;6.75;6.00;;;;;33.93;25.33;102330.47;5009520;28;76251;-94
2022/07/09 13:24:34;;;;;;;;;3.00;3.00;;;;;33.71;25.69;102323.75;5015712;28;46049;-90
2022/07/09 13:27:24;;;;;;;;;;;;;;;;;;;;;
2022/07/09 13:30:21;;;;;;;;;;;;;;;;;;;;;
2022/07/09 13:36:42;;;;;;;;;;;;;;;;;;;;;
2022/07/09 13:39:08;;;;;;;;;5.50;4.00;;;;;33.20;25.32;102313.72;4903194;28;68312;-90
2022/07/09 13:41:33;;;;;;;;;4.00;3.75;;;;;32.98;25.57;102318.56;4913715;28;58065;-90
2022/07/09 13:43:59;;;;;;;;;4.00;4.00;;;;;33.07;25.79;102311.41;4914729;28;47043;-89
2022/07/09 13:49:21;;;;;;;;;3.00;3.00;;;;;36.33;24.42;102305.25;4880784;28;45336;-95
2022/07/09 13:51:46;;;;;;;;;5.75;4.25;;;;;39.21;22.39;102301.13;4863648;29;45540;-91
2022/07/09 13:54:12;;;;;;;;;6.00;6.00;;;;;40.97;19.98;102311.56;4878269;29;48244;-88
2022/07/09 13:56:37;;;;;;;;;3.75;3.00;;;;;41.16;19.34;102309.03;4879396;29;45460;-85
2022/07/09 13:59:02;;;;;;;;;3.00;3.00;;;;;41.92;18.22;102310.38;4863357;29;45338;-90
2022/07/09 14:01:28;;;;;;;;;4.00;3.50;;;;;40.87;18.25;102305.69;4863114;29;57233;-84
2022/07/09 14:04:03;;;;;;;;;4.50;4.50;;;;;40.04;18.59;102305.84;4869829;29;45522;-89
2022/07/09 14:06:31;;;;;;;;;5.00;5.00;;;;;40.42;19.02;102299.94;4867520;29;45404;-89
2022/07/09 14:08:56;;;;;;;;;4.00;4.00;;;;;42.83;18.27;102303.81;4862291;29;45549;-88
2022/07/09 14:11:22;;;;;;;;;3.00;3.00;;;;;44.89;16.85;102294.16;4868840;29;45525;-85
2022/07/09 14:13:48;;;;;;;;;4.00;3.50;;;;;46.68;14.62;102290.75;5016061;28;45616;-85
2022/07/09 14:16:13;;;;;;;;;3.50;3.50;;;;;47.78;14.29;102302.00;5044864;28;45517;-86